sensor_id;sensor_type;location;lat;lon;timestamp;pressure;altitude;pressure_sealevel;temperature;humidity
59588;BME280;45412;54.472;18.464;2022-12-18T00:02:25;101290.55;;;-5.60;94.03
59588;BME280;45412;54.472;18.464;2022-12-18T00:05:13;101293.79;;;-5.67;93.89
59588;BME280;45412;54.472;18.464;2022-12-18T00:08:01;101296.33;;;-5.73;93.98
59588;BME280;45412;54.472;18.464;2022-12-18T00:11:03;101295.75;;;-5.79;94.07
59588;BME280;45412;54.472;18.464;2022-12-18T00:13:56;101300.20;;;-5.84;94.00
59588;BME280;45412;54.472;18.464;2022-12-18T00:16:45;101305.89;;;-5.85;94.03
59588;BME280;45412;54.472;18.464;2022-12-18T00:19:33;101307.59;;;-5.87;93.97
59588;BME280;45412;54.472;18.464;2022-12-18T00:22:21;101304.30;;;-5.87;93.94
59588;BME280;45412;54.472;18.464;2022-12-18T00:25:09;101301.54;;;-5.89;94.05
59588;BME280;45412;54.472;18.464;2022-12-18T00:27:57;101302.54;;;-5.92;94.32
59588;BME280;45412;54.472;18.464;2022-12-18T00:30:45;101303.72;;;-5.96;94.50
59588;BME280;45412;54.472;18.464;2022-12-18T00:33:34;101303.71;;;-5.97;94.62
59588;BME280;45412;54.472;18.464;2022-12-18T00:36:26;101305.44;;;-5.97;95.03
59588;BME280;45412;54.472;18.464;2022-12-18T00:39:15;101306.98;;;-5.99;95.32
59588;BME280;45412;54.472;18.464;2022-12-18T00:42:04;101306.48;;;-5.98;95.36
59588;BME280;45412;54.472;18.464;2022-12-18T00:45:10;101307.36;;;-5.94;95.38
59588;BME280;45412;54.472;18.464;2022-12-18T00:47:59;101312.25;;;-5.88;95.78
59588;BME280;45412;54.472;18.464;2022-12-18T00:50:50;101314.00;;;-5.86;95.43
59588;BME280;45412;54.472;18.464;2022-12-18T00:53:38;101325.27;;;-5.85;95.29
59588;BME280;45412;54.472;18.464;2022-12-18T00:56:26;101321.43;;;-5.89;95.13
59588;BME280;45412;54.472;18.464;2022-12-18T00:59:19;101316.18;;;-5.93;94.92
59588;BME280;45412;54.472;18.464;2022-12-18T01:02:06;101317.89;;;-5.98;94.82
59588;BME280;45412;54.472;18.464;2022-12-18T01:04:54;101319.04;;;-6.05;94.97
59588;BME280;45412;54.472;18.464;2022-12-18T01:07:42;101322.11;;;-6.09;95.07
59588;BME280;45412;54.472;18.464;2022-12-18T01:10:30;101328.48;;;-6.11;95.01
59588;BME280;45412;54.472;18.464;2022-12-18T01:13:18;101331.40;;;-6.11;95.20
59588;BME280;45412;54.472;18.464;2022-12-18T01:16:12;101336.09;;;-6.09;95.13
59588;BME280;45412;54.472;18.464;2022-12-18T01:19:00;101339.91;;;-6.08;95.33
59588;BME280;45412;54.472;18.464;2022-12-18T01:21:49;101341.50;;;-6.05;95.61
59588;BME280;45412;54.472;18.464;2022-12-18T01:24:37;101340.15;;;-6.02;95.73
59588;BME280;45412;54.472;18.464;2022-12-18T01:27:25;101349.17;;;-5.96;96.31
59588;BME280;45412;54.472;18.464;2022-12-18T01:30:14;101351.30;;;-5.91;96.42
59588;BME280;45412;54.472;18.464;2022-12-18T01:33:05;101348.48;;;-5.81;96.71
59588;BME280;45412;54.472;18.464;2022-12-18T01:35:53;101354.80;;;-5.69;96.75
59588;BME280;45412;54.472;18.464;2022-12-18T01:38:41;101353.87;;;-5.59;96.83
59588;BME280;45412;54.472;18.464;2022-12-18T01:41:32;101354.12;;;-5.50;96.87
59588;BME280;45412;54.472;18.464;2022-12-18T01:48:05;101348.52;;;-5.36;97.03
59588;BME280;45412;54.472;18.464;2022-12-18T01:50:54;101351.66;;;-5.33;96.94
59588;BME280;45412;54.472;18.464;2022-12-18T01:53:44;101350.67;;;-5.28;96.94
59588;BME280;45412;54.472;18.464;2022-12-18T01:56:32;101343.95;;;-5.25;97.15
59588;BME280;45412;54.472;18.464;2022-12-18T01:59:20;101347.97;;;-5.19;97.00
59588;BME280;45412;54.472;18.464;2022-12-18T02:02:08;101351.49;;;-5.12;96.99
59588;BME280;45412;54.472;18.464;2022-12-18T02:04:56;101353.78;;;-5.04;97.15
59588;BME280;45412;54.472;18.464;2022-12-18T02:08:25;101351.75;;;-4.99;97.05
59588;BME280;45412;54.472;18.464;2022-12-18T02:14:55;101357.69;;;-4.92;96.86
59588;BME280;45412;54.472;18.464;2022-12-18T02:17:58;101363.39;;;-4.92;96.72
59588;BME280;45412;54.472;18.464;2022-12-18T02:24:42;101371.20;;;-4.90;96.70
59588;BME280;45412;54.472;18.464;2022-12-18T02:27:37;101373.31;;;-4.86;96.74
59588;BME280;45412;54.472;18.464;2022-12-18T02:30:30;101371.96;;;-4.80;96.56
59588;BME280;45412;54.472;18.464;2022-12-18T02:33:20;101366.59;;;-4.80;96.51
59588;BME280;45412;54.472;18.464;2022-12-18T02:36:14;101375.83;;;-4.72;96.35
59588;BME280;45412;54.472;18.464;2022-12-18T02:39:05;101377.90;;;-4.72;96.14
59588;BME280;45412;54.472;18.464;2022-12-18T02:41:57;101379.63;;;-4.73;96.20
59588;BME280;45412;54.472;18.464;2022-12-18T02:44:49;101384.63;;;-4.75;96.17
59588;BME280;45412;54.472;18.464;2022-12-18T02:47:46;101387.75;;;-4.75;95.99
59588;BME280;45412;54.472;18.464;2022-12-18T02:50:42;101386.73;;;-4.72;95.93
59588;BME280;45412;54.472;18.464;2022-12-18T02:53:44;101386.58;;;-4.70;95.98
59588;BME280;45412;54.472;18.464;2022-12-18T02:56:58;101389.35;;;-4.70;95.87
59588;BME280;45412;54.472;18.464;2022-12-18T03:00:03;101387.25;;;-4.71;95.68
59588;BME280;45412;54.472;18.464;2022-12-18T03:03:02;101390.17;;;-4.74;95.57
59588;BME280;45412;54.472;18.464;2022-12-18T03:05:59;101394.84;;;-4.77;95.44
59588;BME280;45412;54.472;18.464;2022-12-18T03:08:58;101393.95;;;-4.81;95.56
59588;BME280;45412;54.472;18.464;2022-12-18T03:11:55;101398.08;;;-4.83;95.41
59588;BME280;45412;54.472;18.464;2022-12-18T03:15:21;101396.48;;;-4.88;95.57
59588;BME280;45412;54.472;18.464;2022-12-18T03:18:25;101402.76;;;-4.83;95.64
59588;BME280;45412;54.472;18.464;2022-12-18T03:21:24;101403.64;;;-4.83;95.74
59588;BME280;45412;54.472;18.464;2022-12-18T03:24:15;101399.29;;;-4.85;95.78
59588;BME280;45412;54.472;18.464;2022-12-18T03:27:11;101407.59;;;-4.86;95.62
59588;BME280;45412;54.472;18.464;2022-12-18T03:30:12;101415.53;;;-4.89;95.35
59588;BME280;45412;54.472;18.464;2022-12-18T03:33:10;101420.20;;;-4.89;95.65
59588;BME280;45412;54.472;18.464;2022-12-18T03:36:02;101421.61;;;-4.88;95.59
59588;BME280;45412;54.472;18.464;2022-12-18T03:38:51;101413.44;;;-4.90;95.54
59588;BME280;45412;54.472;18.464;2022-12-18T03:42:10;101424.91;;;-4.84;95.52
59588;BME280;45412;54.472;18.464;2022-12-18T03:48:20;101432.51;;;-4.88;95.38
59588;BME280;45412;54.472;18.464;2022-12-18T03:51:51;101431.27;;;-4.91;95.38
59588;BME280;45412;54.472;18.464;2022-12-18T03:54:41;101437.30;;;-4.95;95.36
59588;BME280;45412;54.472;18.464;2022-12-18T03:57:33;101441.25;;;-4.98;95.28
59588;BME280;45412;54.472;18.464;2022-12-18T04:00:23;101444.55;;;-4.98;95.39
59588;BME280;45412;54.472;18.464;2022-12-18T04:03:18;101444.90;;;-4.97;95.29
59588;BME280;45412;54.472;18.464;2022-12-18T04:06:13;101445.44;;;-4.96;95.52
59588;BME280;45412;54.472;18.464;2022-12-18T04:09:03;101450.48;;;-4.94;95.31
59588;BME280;45412;54.472;18.464;2022-12-18T04:11:54;101449.60;;;-4.94;95.28
59588;BME280;45412;54.472;18.464;2022-12-18T04:14:43;101451.65;;;-4.96;95.17
59588;BME280;45412;54.472;18.464;2022-12-18T04:17:33;101452.86;;;-4.98;95.21
59588;BME280;45412;54.472;18.464;2022-12-18T04:20:23;101455.78;;;-5.00;95.16
59588;BME280;45412;54.472;18.464;2022-12-18T04:23:10;101459.92;;;-5.02;95.18
59588;BME280;45412;54.472;18.464;2022-12-18T04:25:59;101460.26;;;-5.03;95.10
59588;BME280;45412;54.472;18.464;2022-12-18T04:28:58;101464.07;;;-5.04;94.82
59588;BME280;45412;54.472;18.464;2022-12-18T04:31:45;101461.64;;;-5.03;94.90
59588;BME280;45412;54.472;18.464;2022-12-18T04:34:33;101460.41;;;-5.04;94.71
59588;BME280;45412;54.472;18.464;2022-12-18T04:37:21;101460.58;;;-5.06;94.53
59588;BME280;45412;54.472;18.464;2022-12-18T04:40:10;101465.23;;;-5.09;94.39
59588;BME280;45412;54.472;18.464;2022-12-18T04:43:01;101472.31;;;-5.10;94.52
59588;BME280;45412;54.472;18.464;2022-12-18T04:45:49;101478.35;;;-5.12;94.26
59588;BME280;45412;54.472;18.464;2022-12-18T04:48:37;101484.03;;;-5.15;94.25
59588;BME280;45412;54.472;18.464;2022-12-18T04:51:25;101484.73;;;-5.16;94.07
59588;BME280;45412;54.472;18.464;2022-12-18T04:54:13;101485.79;;;-5.14;94.01
59588;BME280;45412;54.472;18.464;2022-12-18T04:57:01;101483.71;;;-5.12;93.96
59588;BME280;45412;54.472;18.464;2022-12-18T04:59:48;101481.81;;;-5.13;93.72
59588;BME280;45412;54.472;18.464;2022-12-18T05:02:36;101482.33;;;-5.12;93.58
59588;BME280;45412;54.472;18.464;2022-12-18T05:05:24;101481.96;;;-5.14;93.45
59588;BME280;45412;54.472;18.464;2022-12-18T05:08:12;101484.05;;;-5.15;93.68
59588;BME280;45412;54.472;18.464;2022-12-18T05:11:08;101486.80;;;-5.16;93.49
59588;BME280;45412;54.472;18.464;2022-12-18T05:13:56;101490.92;;;-5.18;93.38
59588;BME280;45412;54.472;18.464;2022-12-18T05:16:44;101500.95;;;-5.19;93.40
59588;BME280;45412;54.472;18.464;2022-12-18T05:19:32;101508.73;;;-5.19;93.35
59588;BME280;45412;54.472;18.464;2022-12-18T05:22:20;101512.76;;;-5.17;93.33
59588;BME280;45412;54.472;18.464;2022-12-18T05:25:08;101513.44;;;-5.16;93.23
59588;BME280;45412;54.472;18.464;2022-12-18T05:27:55;101515.71;;;-5.15;93.05
59588;BME280;45412;54.472;18.464;2022-12-18T05:30:53;101516.05;;;-5.15;93.03
59588;BME280;45412;54.472;18.464;2022-12-18T05:33:41;101522.63;;;-5.16;92.89
59588;BME280;45412;54.472;18.464;2022-12-18T05:36:29;101525.54;;;-5.18;92.98
59588;BME280;45412;54.472;18.464;2022-12-18T05:39:17;101528.64;;;-5.21;92.86
59588;BME280;45412;54.472;18.464;2022-12-18T05:42:04;101531.89;;;-5.23;92.91
59588;BME280;45412;54.472;18.464;2022-12-18T05:44:52;101540.21;;;-5.22;92.91
59588;BME280;45412;54.472;18.464;2022-12-18T05:47:39;101542.13;;;-5.20;93.05
59588;BME280;45412;54.472;18.464;2022-12-18T05:50:27;101543.88;;;-5.18;92.79
59588;BME280;45412;54.472;18.464;2022-12-18T05:53:20;101544.77;;;-5.15;92.70
59588;BME280;45412;54.472;18.464;2022-12-18T05:56:15;101542.72;;;-5.14;92.52
59588;BME280;45412;54.472;18.464;2022-12-18T05:59:03;101545.15;;;-5.14;92.62
59588;BME280;45412;54.472;18.464;2022-12-18T06:01:51;101546.52;;;-5.16;92.28
59588;BME280;45412;54.472;18.464;2022-12-18T06:04:39;101548.92;;;-5.17;92.24
59588;BME280;45412;54.472;18.464;2022-12-18T06:07:26;101551.47;;;-5.21;92.18
59588;BME280;45412;54.472;18.464;2022-12-18T06:10:14;101551.80;;;-5.23;92.05
59588;BME280;45412;54.472;18.464;2022-12-18T06:13:03;101549.72;;;-5.23;92.01
59588;BME280;45412;54.472;18.464;2022-12-18T06:15:51;101554.21;;;-5.23;92.04
59588;BME280;45412;54.472;18.464;2022-12-18T06:18:38;101556.98;;;-5.23;92.03
59588;BME280;45412;54.472;18.464;2022-12-18T06:21:27;101557.84;;;-5.24;92.02
59588;BME280;45412;54.472;18.464;2022-12-18T06:24:16;101563.36;;;-5.26;91.81
59588;BME280;45412;54.472;18.464;2022-12-18T06:27:04;101561.27;;;-5.28;91.86
59588;BME280;45412;54.472;18.464;2022-12-18T06:29:52;101567.83;;;-5.29;91.84
59588;BME280;45412;54.472;18.464;2022-12-18T06:32:40;101564.45;;;-5.37;91.81
59588;BME280;45412;54.472;18.464;2022-12-18T06:35:28;101577.98;;;-5.33;91.98
59588;BME280;45412;54.472;18.464;2022-12-18T06:38:16;101588.91;;;-5.32;92.06
59588;BME280;45412;54.472;18.464;2022-12-18T06:41:12;101589.83;;;-5.27;92.09
59588;BME280;45412;54.472;18.464;2022-12-18T06:44:00;101593.50;;;-5.23;91.89
59588;BME280;45412;54.472;18.464;2022-12-18T06:46:48;101596.31;;;-5.19;91.66
59588;BME280;45412;54.472;18.464;2022-12-18T06:49:36;101598.23;;;-5.18;91.66
59588;BME280;45412;54.472;18.464;2022-12-18T06:52:24;101601.54;;;-5.18;91.60
59588;BME280;45412;54.472;18.464;2022-12-18T06:55:12;101599.97;;;-5.18;91.52
59588;BME280;45412;54.472;18.464;2022-12-18T06:58:00;101600.65;;;-5.19;91.38
59588;BME280;45412;54.472;18.464;2022-12-18T07:00:49;101609.49;;;-5.17;91.38
59588;BME280;45412;54.472;18.464;2022-12-18T07:03:39;101619.23;;;-5.14;91.25
59588;BME280;45412;54.472;18.464;2022-12-18T07:06:27;101618.73;;;-5.11;90.95
59588;BME280;45412;54.472;18.464;2022-12-18T07:09:15;101621.69;;;-5.10;91.05
59588;BME280;45412;54.472;18.464;2022-12-18T07:12:03;101626.38;;;-5.09;90.76
59588;BME280;45412;54.472;18.464;2022-12-18T07:14:52;101634.35;;;-5.09;90.83
59588;BME280;45412;54.472;18.464;2022-12-18T07:17:40;101636.59;;;-5.10;90.79
59588;BME280;45412;54.472;18.464;2022-12-18T07:20:27;101633.62;;;-5.12;90.62
59588;BME280;45412;54.472;18.464;2022-12-18T07:23:15;101629.27;;;-5.14;90.60
59588;BME280;45412;54.472;18.464;2022-12-18T07:26:09;101630.83;;;-5.13;90.51
59588;BME280;45412;54.472;18.464;2022-12-18T07:28:57;101633.33;;;-5.08;90.61
59588;BME280;45412;54.472;18.464;2022-12-18T07:31:45;101637.33;;;-5.05;90.35
59588;BME280;45412;54.472;18.464;2022-12-18T07:34:35;101635.44;;;-5.04;89.94
59588;BME280;45412;54.472;18.464;2022-12-18T07:37:23;101642.55;;;-5.03;90.04
59588;BME280;45412;54.472;18.464;2022-12-18T07:40:11;101656.23;;;-5.03;90.12
59588;BME280;45412;54.472;18.464;2022-12-18T07:43:00;101654.25;;;-5.08;90.06
59588;BME280;45412;54.472;18.464;2022-12-18T07:45:49;101670.78;;;-5.02;89.89
59588;BME280;45412;54.472;18.464;2022-12-18T07:48:38;101669.73;;;-5.03;89.69
59588;BME280;45412;54.472;18.464;2022-12-18T07:51:25;101661.58;;;-5.03;89.66
59588;BME280;45412;54.472;18.464;2022-12-18T07:54:13;101656.40;;;-5.02;89.54
59588;BME280;45412;54.472;18.464;2022-12-18T07:57:01;101655.21;;;-5.00;89.54
59588;BME280;45412;54.472;18.464;2022-12-18T07:59:48;101661.33;;;-4.96;89.25
59588;BME280;45412;54.472;18.464;2022-12-18T08:02:36;101660.52;;;-4.91;89.03
59588;BME280;45412;54.472;18.464;2022-12-18T08:05:25;101663.34;;;-4.86;89.07
59588;BME280;45412;54.472;18.464;2022-12-18T08:08:14;101668.79;;;-4.80;89.02
59588;BME280;45412;54.472;18.464;2022-12-18T08:11:02;101667.41;;;-4.79;88.30
59588;BME280;45412;54.472;18.464;2022-12-18T08:13:50;101665.53;;;-4.76;88.24
59588;BME280;45412;54.472;18.464;2022-12-18T08:16:38;101665.38;;;-4.75;87.82
59588;BME280;45412;54.472;18.464;2022-12-18T08:19:26;101670.45;;;-4.71;87.55
59588;BME280;45412;54.472;18.464;2022-12-18T08:22:13;101673.02;;;-4.56;87.40
59588;BME280;45412;54.472;18.464;2022-12-18T08:25:03;101668.38;;;-4.15;85.96
59588;BME280;45412;54.472;18.464;2022-12-18T08:27:52;101665.76;;;-3.07;85.02
59588;BME280;45412;54.472;18.464;2022-12-18T08:30:40;101657.57;;;-1.54;81.17
59588;BME280;45412;54.472;18.464;2022-12-18T08:33:28;101650.19;;;-0.07;74.88
59588;BME280;45412;54.472;18.464;2022-12-18T08:36:16;101647.20;;;1.23;72.74
59588;BME280;45412;54.472;18.464;2022-12-18T08:39:04;101648.48;;;2.50;65.84
59588;BME280;45412;54.472;18.464;2022-12-18T08:41:52;101645.13;;;3.45;61.96
59588;BME280;45412;54.472;18.464;2022-12-18T08:44:59;101642.39;;;4.35;59.94
59588;BME280;45412;54.472;18.464;2022-12-18T08:47:47;101646.95;;;5.18;56.50
59588;BME280;45412;54.472;18.464;2022-12-18T08:50:34;101643.80;;;5.90;54.93
59588;BME280;45412;54.472;18.464;2022-12-18T08:53:23;101639.47;;;6.46;51.67
59588;BME280;45412;54.472;18.464;2022-12-18T08:56:13;101634.85;;;6.91;48.81
59588;BME280;45412;54.472;18.464;2022-12-18T08:59:01;101628.16;;;7.09;46.73
59588;BME280;45412;54.472;18.464;2022-12-18T09:01:49;101630.83;;;7.45;46.13
59588;BME280;45412;54.472;18.464;2022-12-18T09:04:38;101631.14;;;7.85;45.77
59588;BME280;45412;54.472;18.464;2022-12-18T09:07:27;101636.87;;;8.10;44.32
59588;BME280;45412;54.472;18.464;2022-12-18T09:10:15;101637.77;;;8.38;43.09
59588;BME280;45412;54.472;18.464;2022-12-18T09:13:04;101640.03;;;8.72;42.23
59588;BME280;45412;54.472;18.464;2022-12-18T09:15:54;101640.42;;;8.87;40.14
59588;BME280;45412;54.472;18.464;2022-12-18T09:18:42;101634.89;;;9.15;40.01
59588;BME280;45412;54.472;18.464;2022-12-18T09:21:34;101636.48;;;9.19;38.41
59588;BME280;45412;54.472;18.464;2022-12-18T09:24:24;101631.20;;;9.41;37.72
59588;BME280;45412;54.472;18.464;2022-12-18T09:27:12;101638.80;;;9.56;37.42
59588;BME280;45412;54.472;18.464;2022-12-18T09:30:00;101641.98;;;10.10;37.56
59588;BME280;45412;54.472;18.464;2022-12-18T09:32:48;101629.11;;;10.47;35.33
59588;BME280;45412;54.472;18.464;2022-12-18T09:35:37;101625.71;;;10.64;34.63
59588;BME280;45412;54.472;18.464;2022-12-18T09:38:25;101625.44;;;11.00;34.45
59588;BME280;45412;54.472;18.464;2022-12-18T09:44:42;101621.74;;;12.00;32.53
59588;BME280;45412;54.472;18.464;2022-12-18T09:47:37;101617.40;;;12.14;32.05
59588;BME280;45412;54.472;18.464;2022-12-18T09:50:34;101617.10;;;12.51;31.55
59588;BME280;45412;54.472;18.464;2022-12-18T09:53:28;101622.66;;;12.91;30.58
59588;BME280;45412;54.472;18.464;2022-12-18T09:56:22;101624.83;;;12.99;29.86
59588;BME280;45412;54.472;18.464;2022-12-18T09:59:38;101624.06;;;13.14;30.04
59588;BME280;45412;54.472;18.464;2022-12-18T10:02:31;101612.11;;;12.97;28.67
59588;BME280;45412;54.472;18.464;2022-12-18T10:05:37;101611.34;;;12.72;28.93
59588;BME280;45412;54.472;18.464;2022-12-18T10:12:07;101611.40;;;12.77;28.14
59588;BME280;45412;54.472;18.464;2022-12-18T10:15:10;101621.44;;;11.56;29.09
59588;BME280;45412;54.472;18.464;2022-12-18T10:21:07;101624.11;;;11.68;29.89
59588;BME280;45412;54.472;18.464;2022-12-18T10:27:24;101633.67;;;11.05;30.42
59588;BME280;45412;54.472;18.464;2022-12-18T10:30:20;101631.13;;;11.13;30.00
59588;BME280;45412;54.472;18.464;2022-12-18T10:33:23;101629.09;;;11.33;30.00
59588;BME280;45412;54.472;18.464;2022-12-18T10:36:11;101626.32;;;11.25;29.53
59588;BME280;45412;54.472;18.464;2022-12-18T10:39:17;101628.27;;;11.38;29.69
59588;BME280;45412;54.472;18.464;2022-12-18T10:42:19;101626.91;;;11.25;29.35
59588;BME280;45412;54.472;18.464;2022-12-18T10:45:15;101625.11;;;11.25;29.56
59588;BME280;45412;54.472;18.464;2022-12-18T10:48:04;101630.83;;;11.50;29.72
59588;BME280;45412;54.472;18.464;2022-12-18T10:50:52;101628.53;;;11.63;29.14
59588;BME280;45412;54.472;18.464;2022-12-18T10:54:05;101627.05;;;11.63;29.01
59588;BME280;45412;54.472;18.464;2022-12-18T10:57:14;101639.40;;;11.97;29.19
59588;BME280;45412;54.472;18.464;2022-12-18T11:00:25;101638.56;;;11.70;28.78
59588;BME280;45412;54.472;18.464;2022-12-18T11:06:28;101639.33;;;11.73;28.94
59588;BME280;45412;54.472;18.464;2022-12-18T11:09:25;101644.71;;;11.04;28.59
59588;BME280;45412;54.472;18.464;2022-12-18T11:12:19;101641.14;;;10.85;29.43
59588;BME280;45412;54.472;18.464;2022-12-18T11:15:27;101639.35;;;10.62;29.68
59588;BME280;45412;54.472;18.464;2022-12-18T11:18:38;101634.54;;;10.69;30.01
59588;BME280;45412;54.472;18.464;2022-12-18T11:21:26;101631.43;;;10.91;29.59
59588;BME280;45412;54.472;18.464;2022-12-18T11:24:32;101627.17;;;10.47;29.58
59588;BME280;45412;54.472;18.464;2022-12-18T11:27:21;101630.09;;;10.31;30.23
59588;BME280;45412;54.472;18.464;2022-12-18T11:30:31;101630.47;;;10.20;30.16
59588;BME280;45412;54.472;18.464;2022-12-18T11:33:21;101638.46;;;9.85;30.43
59588;BME280;45412;54.472;18.464;2022-12-18T11:36:09;101650.81;;;9.26;31.12
59588;BME280;45412;54.472;18.464;2022-12-18T11:38:59;101660.15;;;8.57;32.39
59588;BME280;45412;54.472;18.464;2022-12-18T11:42:03;101668.56;;;7.82;33.56
59588;BME280;45412;54.472;18.464;2022-12-18T11:51:11;101689.13;;;5.49;37.74
59588;BME280;45412;54.472;18.464;2022-12-18T11:54:12;101686.52;;;4.81;38.84
59588;BME280;45412;54.472;18.464;2022-12-18T11:57:32;101694.84;;;4.32;40.22
59588;BME280;45412;54.472;18.464;2022-12-18T12:00:19;101699.89;;;3.84;41.33
59588;BME280;45412;54.472;18.464;2022-12-18T12:06:12;101690.31;;;3.49;42.41
59588;BME280;45412;54.472;18.464;2022-12-18T12:10:36;101687.48;;;3.01;43.66
59588;BME280;45412;54.472;18.464;2022-12-18T12:16:48;101690.95;;;2.07;46.17
59588;BME280;45412;54.472;18.464;2022-12-18T12:23:26;101685.02;;;1.72;47.82
59588;BME280;45412;54.472;18.464;2022-12-18T12:26:23;101688.30;;;1.86;47.52
59588;BME280;45412;54.472;18.464;2022-12-18T12:38:58;101687.78;;;-0.15;52.69
59588;BME280;45412;54.472;18.464;2022-12-18T12:41:47;101690.43;;;-0.46;54.01
59588;BME280;45412;54.472;18.464;2022-12-18T12:44:56;101686.92;;;-0.72;55.21
59588;BME280;45412;54.472;18.464;2022-12-18T12:47:48;101685.95;;;-0.92;55.98
59588;BME280;45412;54.472;18.464;2022-12-18T12:50:38;101685.73;;;-1.29;57.81
59588;BME280;45412;54.472;18.464;2022-12-18T12:53:34;101686.82;;;-1.45;57.84
59588;BME280;45412;54.472;18.464;2022-12-18T12:56:31;101685.96;;;-1.58;58.71
59588;BME280;45412;54.472;18.464;2022-12-18T13:00:16;101688.60;;;-1.72;59.34
59588;BME280;45412;54.472;18.464;2022-12-18T13:06:33;101692.27;;;-2.07;61.52
59588;BME280;45412;54.472;18.464;2022-12-18T13:09:33;101686.69;;;-2.16;62.20
59588;BME280;45412;54.472;18.464;2022-12-18T13:12:23;101693.64;;;-2.23;62.76
59588;BME280;45412;54.472;18.464;2022-12-18T13:15:42;101693.45;;;-2.32;63.51
59588;BME280;45412;54.472;18.464;2022-12-18T13:18:33;101693.09;;;-2.39;63.94
59588;BME280;45412;54.472;18.464;2022-12-18T13:21:28;101692.55;;;-2.49;64.93
59588;BME280;45412;54.472;18.464;2022-12-18T13:24:30;101691.14;;;-2.56;65.69
59588;BME280;45412;54.472;18.464;2022-12-18T13:27:46;101694.42;;;-2.63;65.96
59588;BME280;45412;54.472;18.464;2022-12-18T13:30:59;101701.52;;;-2.70;66.66
59588;BME280;45412;54.472;18.464;2022-12-18T13:33:47;101703.41;;;-2.76;67.16
59588;BME280;45412;54.472;18.464;2022-12-18T13:43:55;101715.50;;;-2.97;68.74
59588;BME280;45412;54.472;18.464;2022-12-18T13:46:48;101718.23;;;-3.02;69.10
59588;BME280;45412;54.472;18.464;2022-12-18T13:49:41;101714.23;;;-3.08;69.43
59588;BME280;45412;54.472;18.464;2022-12-18T13:52:36;101715.94;;;-3.15;70.12
59588;BME280;45412;54.472;18.464;2022-12-18T13:55:25;101717.80;;;-3.21;70.24
59588;BME280;45412;54.472;18.464;2022-12-18T13:58:13;101713.77;;;-3.29;71.08
59588;BME280;45412;54.472;18.464;2022-12-18T14:01:01;101719.64;;;-3.35;71.41
59588;BME280;45412;54.472;18.464;2022-12-18T14:04:24;101718.71;;;-3.43;72.32
59588;BME280;45412;54.472;18.464;2022-12-18T14:07:24;101714.83;;;-3.53;72.50
59588;BME280;45412;54.472;18.464;2022-12-18T14:10:16;101715.11;;;-3.63;73.36
59588;BME280;45412;54.472;18.464;2022-12-18T14:13:36;101710.52;;;-3.71;74.21
59588;BME280;45412;54.472;18.464;2022-12-18T14:16:24;101702.33;;;-3.79;73.91
59588;BME280;45412;54.472;18.464;2022-12-18T14:19:16;101705.54;;;-3.88;74.70
59588;BME280;45412;54.472;18.464;2022-12-18T14:22:05;101704.08;;;-3.97;75.13
59588;BME280;45412;54.472;18.464;2022-12-18T14:25:22;101711.48;;;-4.03;75.05
59588;BME280;45412;54.472;18.464;2022-12-18T14:28:14;101710.73;;;-4.10;75.27
59588;BME280;45412;54.472;18.464;2022-12-18T14:31:02;101715.52;;;-4.17;75.09
59588;BME280;45412;54.472;18.464;2022-12-18T14:33:51;101708.71;;;-4.22;75.59
59588;BME280;45412;54.472;18.464;2022-12-18T14:36:40;101706.61;;;-4.24;75.68
59588;BME280;45412;54.472;18.464;2022-12-18T14:39:27;101712.81;;;-4.28;75.71
59588;BME280;45412;54.472;18.464;2022-12-18T14:42:16;101723.52;;;-4.33;75.97
59588;BME280;45412;54.472;18.464;2022-12-18T14:45:35;101729.52;;;-4.40;76.05
59588;BME280;45412;54.472;18.464;2022-12-18T14:48:41;101731.48;;;-4.50;76.71
59588;BME280;45412;54.472;18.464;2022-12-18T14:51:32;101730.52;;;-4.58;76.64
59588;BME280;45412;54.472;18.464;2022-12-18T14:54:22;101740.48;;;-4.65;77.16
59588;BME280;45412;54.472;18.464;2022-12-18T14:57:32;101738.86;;;-4.71;77.26
59588;BME280;45412;54.472;18.464;2022-12-18T15:00:25;101732.92;;;-4.75;77.20
59588;BME280;45412;54.472;18.464;2022-12-18T15:03:18;101737.71;;;-4.80;77.03
59588;BME280;45412;54.472;18.464;2022-12-18T15:06:36;101745.44;;;-4.86;77.37
59588;BME280;45412;54.472;18.464;2022-12-18T15:09:25;101746.77;;;-4.90;77.12
59588;BME280;45412;54.472;18.464;2022-12-18T15:12:29;101735.30;;;-4.93;77.09
59588;BME280;45412;54.472;18.464;2022-12-18T15:18:35;101736.60;;;-5.00;77.31
59588;BME280;45412;54.472;18.464;2022-12-18T15:21:28;101735.86;;;-5.03;77.50
59588;BME280;45412;54.472;18.464;2022-12-18T15:24:25;101734.73;;;-5.09;77.69
59588;BME280;45412;54.472;18.464;2022-12-18T15:27:30;101740.91;;;-5.14;77.62
59588;BME280;45412;54.472;18.464;2022-12-18T15:30:24;101749.30;;;-5.20;77.71
59588;BME280;45412;54.472;18.464;2022-12-18T15:33:31;101757.55;;;-5.24;77.62
59588;BME280;45412;54.472;18.464;2022-12-18T15:36:23;101760.81;;;-5.26;77.63
59588;BME280;45412;54.472;18.464;2022-12-18T15:39:13;101763.36;;;-5.30;77.62
59588;BME280;45412;54.472;18.464;2022-12-18T15:42:01;101763.11;;;-5.34;77.75
59588;BME280;45412;54.472;18.464;2022-12-18T15:45:11;101763.20;;;-5.40;77.73
59588;BME280;45412;54.472;18.464;2022-12-18T15:48:43;101764.54;;;-5.43;77.73
59588;BME280;45412;54.472;18.464;2022-12-18T15:54:13;101764.73;;;-5.53;78.45
59588;BME280;45412;54.472;18.464;2022-12-18T15:57:03;101759.83;;;-5.57;78.61
59588;BME280;45412;54.472;18.464;2022-12-18T16:00:12;101761.31;;;-5.61;78.84
59588;BME280;45412;54.472;18.464;2022-12-18T16:03:00;101755.89;;;-5.66;79.03
59588;BME280;45412;54.472;18.464;2022-12-18T16:05:49;101755.98;;;-5.69;78.83
59588;BME280;45412;54.472;18.464;2022-12-18T16:08:36;101760.30;;;-5.71;78.82
59588;BME280;45412;54.472;18.464;2022-12-18T16:11:31;101755.98;;;-5.71;78.83